createdAt,value
2022-11-25T00:00:34.586Z,96099.84
2022-11-25T00:03:01.390Z,96106.22
2022-11-25T00:05:28.559Z,96081.91
2022-11-25T00:07:55.338Z,96086.81
2022-11-25T00:10:22.117Z,96083.66
2022-11-25T00:12:48.826Z,96086.41
2022-11-25T00:15:15.561Z,96077.28
2022-11-25T00:17:42.221Z,96083.59
2022-11-25T00:20:09.273Z,96087.31
2022-11-25T00:22:35.997Z,96074.84
2022-11-25T00:25:02.661Z,96093.03
2022-11-25T00:27:29.364Z,96104.72
2022-11-25T00:29:59.300Z,96142.06
2022-11-25T00:32:26.059Z,96182.75
2022-11-25T00:34:52.725Z,96189.72
2022-11-25T00:37:19.771Z,96151.69
2022-11-25T00:39:46.481Z,96109.28
2022-11-25T00:42:31.432Z,96108.63
2022-11-25T00:44:58.131Z,96126.91
2022-11-25T00:47:24.878Z,96111.38
2022-11-25T00:49:53.928Z,96097.22
2022-11-25T00:52:26.136Z,96114.56
2022-11-25T00:54:54.317Z,96117.06
2022-11-25T00:57:23.183Z,96138.84
2022-11-25T00:59:50.411Z,96134.75
2022-11-25T01:02:18.993Z,96139.13
2022-11-25T01:04:46.703Z,96132.00
2022-11-25T01:07:16.041Z,96143.41
2022-11-25T01:09:42.840Z,96194.97
2022-11-25T01:12:09.508Z,96216.00
2022-11-25T01:14:36.880Z,96168.03
2022-11-25T01:17:03.904Z,96178.19
2022-11-25T01:19:32.688Z,96190.94
2022-11-25T01:22:00.105Z,96201.75
2022-11-25T01:24:26.815Z,96215.34
2022-11-25T01:26:55.121Z,96178.50
2022-11-25T01:29:22.692Z,96185.72
2022-11-25T01:31:50.538Z,96183.13
2022-11-25T01:34:23.146Z,96162.03
2022-11-25T01:36:49.898Z,96150.84
2022-11-25T01:39:22.154Z,96184.06
2022-11-25T01:41:51.203Z,96225.78
2022-11-25T01:44:21.588Z,96219.31
2022-11-25T01:47:02.146Z,96209.16
2022-11-25T01:49:42.764Z,96237.06
2022-11-25T01:52:15.678Z,96170.97
2022-11-25T01:55:09.592Z,96201.13
2022-11-25T01:57:44.441Z,96158.03
2022-11-25T02:00:11.816Z,96143.41
2022-11-25T02:02:45.431Z,96129.44
2022-11-25T02:05:18.161Z,96140.63
2022-11-25T02:07:48.564Z,96162.88
2022-11-25T02:10:28.881Z,96206.31
2022-11-25T02:12:55.648Z,96180.53
2022-11-25T02:15:22.962Z,96173.03
2022-11-25T02:17:49.941Z,96147.22
2022-11-25T02:20:19.453Z,96152.28
2022-11-25T02:23:12.372Z,96158.06
2022-11-25T02:25:41.080Z,96168.03
2022-11-25T02:28:15.877Z,96188.03
2022-11-25T02:30:43.227Z,96212.03
2022-11-25T02:33:10.232Z,96270.88
2022-11-25T02:36:01.797Z,96199.06
2022-11-25T02:38:39.611Z,96203.22
2022-11-25T02:41:25.450Z,96223.06
2022-11-25T02:43:57.397Z,96233.72
2022-11-25T02:46:27.106Z,96233.81
2022-11-25T02:49:11.684Z,96244.09
2022-11-25T02:51:44.576Z,96236.84
2022-11-25T02:54:15.973Z,96243.78
2022-11-25T02:56:43.060Z,96238.09
2022-11-25T02:59:10.164Z,96244.56
2022-11-25T03:01:38.590Z,96240.91
2022-11-25T03:04:07.589Z,96188.00
2022-11-25T03:06:34.574Z,96193.25
2022-11-25T03:09:01.828Z,96191.91
2022-11-25T03:11:47.445Z,96170.13
2022-11-25T03:14:15.279Z,96176.41
2022-11-25T03:16:43.272Z,96179.66
2022-11-25T03:19:10.341Z,96172.59
2022-11-25T03:21:37.044Z,96170.47
2022-11-25T03:24:04.052Z,96174.00
2022-11-25T03:26:30.948Z,96153.16
2022-11-25T03:28:57.644Z,96159.53
2022-11-25T03:31:24.457Z,96194.25
2022-11-25T03:33:51.291Z,96167.41
2022-11-25T03:36:18.039Z,96187.31
2022-11-25T03:38:44.789Z,96184.75
2022-11-25T03:41:11.518Z,96204.09
2022-11-25T03:43:38.246Z,96159.22
2022-11-25T03:46:05.387Z,96134.34
2022-11-25T03:48:32.583Z,96147.69
2022-11-25T03:50:59.405Z,96163.88
2022-11-25T03:53:27.915Z,96144.34
2022-11-25T03:55:54.697Z,96152.84
2022-11-25T03:58:24.595Z,96167.72
2022-11-25T04:00:51.903Z,96167.56
2022-11-25T04:03:18.780Z,96172.66
2022-11-25T04:05:45.749Z,96138.88
2022-11-25T04:08:12.929Z,96172.56
2022-11-25T04:10:39.877Z,96165.75
2022-11-25T04:13:08.413Z,96234.13
2022-11-25T04:15:43.859Z,96204.50
2022-11-25T04:18:10.576Z,96228.13
2022-11-25T04:20:37.247Z,96207.56
2022-11-25T04:23:07.408Z,96188.50
2022-11-25T04:25:38.770Z,96160.09
2022-11-25T04:28:11.965Z,96131.22
2022-11-25T04:30:39.463Z,96135.22
2022-11-25T04:33:06.712Z,96153.53
2022-11-25T04:35:33.594Z,96133.13
2022-11-25T04:38:01.029Z,96149.31
2022-11-25T04:40:29.679Z,96247.53
2022-11-25T04:43:15.143Z,96294.50
2022-11-25T04:46:13.521Z,96286.78
2022-11-25T04:48:40.901Z,96318.09
2022-11-25T04:51:08.348Z,96287.63
2022-11-25T04:53:35.289Z,96278.66
2022-11-25T04:56:02.106Z,96269.09
2022-11-25T04:59:09.316Z,96284.69
2022-11-25T05:01:40.417Z,96275.25
2022-11-25T05:04:26.048Z,96222.16
2022-11-25T05:06:54.126Z,96206.44
2022-11-25T05:09:21.979Z,96255.66
2022-11-25T05:11:57.411Z,96290.63
2022-11-25T05:14:25.462Z,96247.09
2022-11-25T05:16:53.009Z,96268.50
2022-11-25T05:19:20.074Z,96205.84
2022-11-25T05:21:47.834Z,96206.50
2022-11-25T05:24:15.162Z,96143.47
2022-11-25T05:26:43.337Z,96091.06
2022-11-25T05:29:10.439Z,96065.88
2022-11-25T05:31:37.353Z,96079.91
2022-11-25T05:34:05.156Z,96030.81
2022-11-25T05:36:32.178Z,96048.06
2022-11-25T05:38:59.717Z,96040.63
2022-11-25T05:41:40.128Z,96047.94
2022-11-25T05:44:06.931Z,96051.88
2022-11-25T05:46:33.855Z,96045.97
2022-11-25T05:49:01.018Z,96063.38
2022-11-25T05:51:30.245Z,96036.44
2022-11-25T05:53:59.196Z,96072.97
2022-11-25T05:56:29.670Z,96061.63
2022-11-25T05:59:08.272Z,96027.88
2022-11-25T06:02:01.337Z,95971.47
2022-11-25T06:04:29.597Z,95972.53
2022-11-25T06:06:56.810Z,95949.97
2022-11-25T06:09:23.712Z,95947.53
2022-11-25T06:11:51.150Z,95948.88
2022-11-25T06:14:18.683Z,95944.34
2022-11-25T06:16:47.081Z,95979.06
2022-11-25T06:19:28.678Z,95983.75
2022-11-25T06:21:55.382Z,95977.97
2022-11-25T06:24:22.125Z,95987.53
2022-11-25T06:26:54.572Z,95976.16
2022-11-25T06:29:21.378Z,95957.81
2022-11-25T06:31:50.599Z,95968.41
2022-11-25T06:34:37.532Z,95951.25
2022-11-25T06:37:06.717Z,95972.97
2022-11-25T06:39:33.352Z,95966.72
2022-11-25T06:42:00.065Z,95959.63
2022-11-25T06:44:27.073Z,95973.53
2022-11-25T06:46:54.208Z,95988.84
2022-11-25T06:49:21.020Z,95979.50
2022-11-25T06:51:49.758Z,95981.44
2022-11-25T06:54:16.857Z,96011.31
2022-11-25T06:56:43.686Z,96067.75
2022-11-25T06:59:10.495Z,96057.44
2022-11-25T07:01:38.317Z,96012.66
2022-11-25T07:04:05.916Z,96025.25
2022-11-25T07:06:33.537Z,96045.13
2022-11-25T07:09:01.000Z,96026.13
2022-11-25T07:11:33.239Z,95987.09
2022-11-25T07:14:03.116Z,95958.38
2022-11-25T07:16:31.733Z,95949.06
2022-11-25T07:19:03.159Z,95933.41
2022-11-25T07:21:31.348Z,95936.84
2022-11-25T07:24:00.322Z,95950.84
2022-11-25T07:26:29.804Z,95980.72
2022-11-25T07:29:00.001Z,96025.13
2022-11-25T07:31:34.048Z,95990.81
2022-11-25T07:34:07.245Z,95963.59
2022-11-25T07:36:35.585Z,95981.38
2022-11-25T07:39:06.602Z,95967.72
2022-11-25T07:41:34.158Z,95970.72
2022-11-25T07:44:03.423Z,96001.28
2022-11-25T07:46:37.384Z,96003.84
2022-11-25T07:49:06.602Z,96038.59
2022-11-25T07:51:35.112Z,96028.69
2022-11-25T07:54:04.055Z,96009.59
2022-11-25T07:56:33.222Z,96032.97
2022-11-25T07:59:00.096Z,96034.78
2022-11-25T08:01:26.881Z,96046.31
2022-11-25T08:03:54.251Z,96049.91
2022-11-25T08:06:25.420Z,96055.66
2022-11-25T08:08:55.769Z,96056.75
2022-11-25T08:11:31.477Z,96064.63
2022-11-25T08:13:59.376Z,96078.00
2022-11-25T08:16:29.778Z,96122.31
2022-11-25T08:18:57.374Z,96114.72
2022-11-25T08:21:24.895Z,96085.56
2022-11-25T08:23:52.692Z,96091.94
2022-11-25T08:26:22.510Z,96093.44
2022-11-25T08:28:49.974Z,96094.66
2022-11-25T08:31:21.124Z,96082.78
2022-11-25T08:33:48.668Z,96094.19
2022-11-25T08:36:16.554Z,96109.69
2022-11-25T08:38:44.727Z,96139.31
2022-11-25T08:41:17.388Z,96148.28
2022-11-25T08:43:44.259Z,96149.16
2022-11-25T08:46:14.068Z,96162.03
2022-11-25T08:48:41.304Z,96157.63
2022-11-25T08:51:11.441Z,96155.31
2022-11-25T08:53:39.532Z,96157.00
2022-11-25T08:56:06.948Z,96159.28
2022-11-25T08:58:33.959Z,96174.78
2022-11-25T09:01:01.336Z,96169.31
2022-11-25T09:03:28.387Z,96172.78
2022-11-25T09:05:55.242Z,96192.97
2022-11-25T09:08:21.989Z,96211.38
2022-11-25T09:10:48.818Z,96221.38
2022-11-25T09:13:15.593Z,96211.56
2022-11-25T09:15:42.331Z,96205.19
2022-11-25T09:18:11.132Z,96194.16
2022-11-25T09:20:39.761Z,96223.56
2022-11-25T09:23:07.887Z,96221.59
2022-11-25T09:25:35.617Z,96215.81
2022-11-25T09:28:02.695Z,96212.50
2022-11-25T09:30:29.747Z,96230.88
2022-11-25T09:32:56.841Z,96237.66
2022-11-25T09:35:24.787Z,96269.66
2022-11-25T09:37:51.754Z,96247.75
2022-11-25T09:40:22.086Z,96256.25
2022-11-25T09:43:10.302Z,96259.38
2022-11-25T09:46:09.469Z,96299.41
2022-11-25T09:48:58.157Z,96328.06
2022-11-25T09:51:39.020Z,96335.94
2022-11-25T09:54:17.510Z,96294.75
2022-11-25T09:57:00.704Z,96306.84
2022-11-25T09:59:43.802Z,96279.75
2022-11-25T10:02:51.990Z,96250.66
2022-11-25T10:05:25.540Z,96236.19
2022-11-25T10:07:56.770Z,96207.72
2022-11-25T10:10:27.913Z,96183.22
2022-11-25T10:12:59.227Z,96229.81
2022-11-25T10:15:46.909Z,96237.91
2022-11-25T10:18:29.584Z,96216.47
2022-11-25T10:20:56.270Z,96198.84
2022-11-25T10:23:34.095Z,96270.31
2022-11-25T10:26:14.479Z,96238.25
2022-11-25T10:28:52.242Z,96241.47
2022-11-25T10:31:37.949Z,96222.66
2022-11-25T10:34:25.150Z,96292.47
2022-11-25T10:36:54.614Z,96380.78
2022-11-25T10:39:24.682Z,96409.28
2022-11-25T10:42:03.545Z,96396.16
2022-11-25T10:44:41.149Z,96399.75
2022-11-25T10:47:45.497Z,96439.81
2022-11-25T10:50:14.973Z,96426.03
2022-11-25T10:52:50.801Z,96497.94
2022-11-25T10:55:25.562Z,96469.22
2022-11-25T10:57:53.520Z,96467.78
2022-11-25T11:00:28.306Z,96481.03
2022-11-25T11:02:56.036Z,96494.75
2022-11-25T11:05:24.549Z,96521.06
2022-11-25T11:08:17.888Z,96523.09
2022-11-25T11:10:45.473Z,96522.59
2022-11-25T11:13:21.297Z,96526.44
2022-11-25T11:15:48.454Z,96487.44
2022-11-25T11:18:21.603Z,96553.00
2022-11-25T11:20:51.631Z,96532.72
2022-11-25T11:23:18.808Z,96549.22
2022-11-25T11:25:59.100Z,96584.78
2022-11-25T11:28:38.869Z,96560.25
2022-11-25T11:31:18.073Z,96618.19
2022-11-25T11:33:48.395Z,96614.72
2022-11-25T11:36:15.269Z,96651.78
2022-11-25T11:38:53.842Z,96647.91
2022-11-25T11:41:54.858Z,96625.50
2022-11-25T11:44:46.212Z,96663.47
2022-11-25T11:47:31.812Z,96679.59
2022-11-25T11:50:29.088Z,96697.53
2022-11-25T11:52:55.794Z,96678.25
2022-11-25T11:56:33.003Z,96675.34
2022-11-25T11:59:00.268Z,96715.22
2022-11-25T12:01:56.221Z,96702.91
2022-11-25T12:04:30.988Z,96742.72
2022-11-25T12:07:03.840Z,96729.28
2022-11-25T12:09:36.150Z,96729.69
2022-11-25T12:12:07.155Z,96768.97
2022-11-25T12:14:45.737Z,96725.66
2022-11-25T12:17:28.737Z,96773.81
2022-11-25T12:20:04.352Z,96814.53
2022-11-25T12:22:53.709Z,96781.75
2022-11-25T12:25:24.385Z,96793.81
2022-11-25T12:28:01.673Z,96791.75
2022-11-25T12:30:36.181Z,96784.22
2022-11-25T12:33:30.627Z,96870.72
2022-11-25T12:36:00.297Z,96867.16
2022-11-25T12:38:47.412Z,96861.16
2022-11-25T12:41:38.375Z,96839.25
2022-11-25T12:44:22.975Z,96837.63
2022-11-25T12:46:55.415Z,96875.72
2022-11-25T12:49:49.517Z,96836.13
2022-11-25T12:52:54.474Z,96807.34
2022-11-25T12:55:27.617Z,96836.31
2022-11-25T12:58:18.855Z,96842.72
2022-11-25T13:01:04.127Z,96834.38
2022-11-25T13:03:36.997Z,96858.34
2022-11-25T13:06:24.169Z,96853.03
2022-11-25T13:09:04.390Z,96851.50
2022-11-25T13:11:57.643Z,96860.31
2022-11-25T13:15:03.828Z,96879.19
2022-11-25T13:17:41.714Z,96872.22
2022-11-25T13:20:26.951Z,96880.78
2022-11-25T13:23:05.696Z,96849.63
2022-11-25T13:25:33.458Z,96823.03
2022-11-25T13:28:02.440Z,96849.63
2022-11-25T13:30:31.953Z,96834.50
2022-11-25T13:33:14.091Z,96837.28
2022-11-25T13:35:44.071Z,96853.94
2022-11-25T13:38:30.656Z,96889.31
2022-11-25T13:41:03.210Z,96853.66
2022-11-25T13:43:30.185Z,96878.88
2022-11-25T13:45:57.129Z,96885.91
2022-11-25T13:48:29.433Z,96852.72
2022-11-25T13:51:16.497Z,96844.47
2022-11-25T13:53:52.703Z,96836.34
2022-11-25T13:56:30.579Z,96838.94
2022-11-25T13:59:13.933Z,96867.19
2022-11-25T14:01:51.977Z,96864.94
2022-11-25T14:04:41.091Z,96888.13
2022-11-25T14:07:34.719Z,96879.63
2022-11-25T14:10:10.812Z,96908.88
2022-11-25T14:12:58.630Z,96912.22
2022-11-25T14:15:37.132Z,96897.75
2022-11-25T14:19:03.212Z,96928.34
2022-11-25T14:21:15.146Z,96936.06
2022-11-25T14:23:56.041Z,96945.34
2022-11-25T14:26:48.668Z,96956.63
2022-11-25T14:29:27.096Z,96967.63
2022-11-25T14:31:59.723Z,96983.69
2022-11-25T14:34:34.086Z,96946.56
2022-11-25T14:37:09.999Z,96957.75
2022-11-25T14:39:43.596Z,96951.47
2022-11-25T14:42:14.474Z,96959.00
2022-11-25T14:44:48.093Z,96917.31
2022-11-25T14:47:15.108Z,96903.44
2022-11-25T14:50:33.623Z,96918.38
2022-11-25T14:52:59.649Z,96936.44
2022-11-25T14:55:31.399Z,96933.38
2022-11-25T14:57:58.457Z,96913.81
2022-11-25T15:00:25.363Z,96907.44
2022-11-25T15:02:59.068Z,96919.03
2022-11-25T15:05:37.782Z,96901.78
2022-11-25T15:08:15.011Z,96899.78
2022-11-25T15:10:51.812Z,96909.75
2022-11-25T15:13:37.723Z,96908.50
2022-11-25T15:16:17.145Z,96908.97
2022-11-25T15:18:47.427Z,96910.16
2022-11-25T15:21:16.319Z,96902.56
2022-11-25T15:23:43.324Z,96899.22
2022-11-25T15:26:27.945Z,96901.50
2022-11-25T15:29:03.007Z,96902.38
2022-11-25T15:31:33.360Z,96898.78
2022-11-25T15:34:04.053Z,96896.16
2022-11-25T15:36:31.060Z,96890.50
2022-11-25T15:39:33.284Z,96898.56
2022-11-25T15:42:07.928Z,96894.50
2022-11-25T15:44:40.744Z,96914.31
2022-11-25T15:47:21.124Z,96917.97
2022-11-25T15:49:53.876Z,96903.16
2022-11-25T15:52:22.632Z,96903.00
2022-11-25T15:54:51.525Z,96914.47
2022-11-25T15:57:31.978Z,96885.03
2022-11-25T15:59:58.707Z,96871.47
2022-11-25T16:02:37.760Z,96867.97
2022-11-25T16:05:15.797Z,96872.41
2022-11-25T16:07:51.651Z,96865.97
2022-11-25T16:10:21.145Z,96865.97
2022-11-25T16:13:20.937Z,96866.59
2022-11-25T16:16:02.307Z,96859.56
2022-11-25T16:18:40.727Z,96890.06
2022-11-25T16:21:32.976Z,96891.28
2022-11-25T16:24:40.765Z,96876.97
2022-11-25T16:27:16.588Z,96866.72
2022-11-25T16:30:08.288Z,96860.31
2022-11-25T16:32:35.048Z,96838.38
2022-11-25T16:35:21.219Z,96830.59
2022-11-25T16:40:38.133Z,96799.47
2022-11-25T16:43:14.454Z,96799.47
2022-11-25T16:45:41.391Z,96786.88
2022-11-25T16:48:19.739Z,96780.59
2022-11-25T16:50:47.002Z,96782.78
2022-11-25T16:53:14.062Z,96774.66
2022-11-25T16:55:42.905Z,96773.16
2022-11-25T16:58:18.212Z,96770.56
2022-11-25T17:00:51.418Z,96782.75
2022-11-25T17:03:18.882Z,96799.97
2022-11-25T17:05:47.032Z,96801.03
2022-11-25T17:08:14.317Z,96794.78
2022-11-25T17:10:43.463Z,96775.75
2022-11-25T17:13:28.238Z,96763.81
2022-11-25T17:15:55.001Z,96772.41
2022-11-25T17:18:22.833Z,96754.09
2022-11-25T17:20:49.523Z,96742.97
2022-11-25T17:23:17.478Z,96740.97
2022-11-25T17:25:48.503Z,96743.28
2022-11-25T17:28:20.280Z,96741.91
2022-11-25T17:30:48.116Z,96747.25
2022-11-25T17:33:17.593Z,96747.81
2022-11-25T17:35:45.212Z,96745.25
2022-11-25T17:38:15.567Z,96736.44
2022-11-25T17:40:43.648Z,96719.38
2022-11-25T17:43:15.609Z,96696.22
2022-11-25T17:45:43.571Z,96691.63
2022-11-25T17:48:12.560Z,96696.22
2022-11-25T17:50:39.481Z,96673.50
2022-11-25T17:53:06.190Z,96677.31
2022-11-25T17:55:35.250Z,96683.25
2022-11-25T17:58:02.375Z,96685.69
2022-11-25T18:00:29.064Z,96704.28
2022-11-25T18:02:55.895Z,96700.66
2022-11-25T18:05:25.056Z,96712.22
2022-11-25T18:07:52.464Z,96726.09
2022-11-25T18:10:24.075Z,96730.81
2022-11-25T18:12:53.247Z,96724.13
2022-11-25T18:15:23.361Z,96725.81
2022-11-25T18:17:51.484Z,96718.63
2022-11-25T18:20:24.070Z,96733.28
2022-11-25T18:22:52.373Z,96732.34
2022-11-25T18:25:23.137Z,96741.19
2022-11-25T18:27:56.210Z,96742.09
2022-11-25T18:30:29.731Z,96758.25
2022-11-25T18:32:57.425Z,96771.34
2022-11-25T18:35:31.126Z,96764.19
2022-11-25T18:38:01.202Z,96772.41
2022-11-25T18:40:29.295Z,96782.59
2022-11-25T18:43:00.397Z,96785.50
2022-11-25T18:45:30.878Z,96803.28
2022-11-25T18:47:57.673Z,96806.06
2022-11-25T18:50:26.088Z,96802.22
2022-11-25T18:52:53.334Z,96809.78
2022-11-25T18:55:22.889Z,96800.19
2022-11-25T18:57:51.588Z,96789.38
2022-11-25T19:00:32.384Z,96786.31
2022-11-25T19:03:00.228Z,96787.53
2022-11-25T19:05:31.662Z,96787.53
2022-11-25T19:07:59.271Z,96790.72
2022-11-25T19:10:30.866Z,96781.91
2022-11-25T19:13:01.003Z,96792.75
2022-11-25T19:15:27.961Z,96807.50
2022-11-25T19:17:58.120Z,96808.75
2022-11-25T19:20:26.454Z,96821.50
2022-11-25T19:22:57.853Z,96813.56
2022-11-25T19:25:27.213Z,96810.38
2022-11-25T19:27:57.765Z,96822.72
2022-11-25T19:30:27.883Z,96811.94
2022-11-25T19:32:58.255Z,96818.28
2022-11-25T19:35:33.360Z,96814.78
2022-11-25T19:38:00.118Z,96821.63
2022-11-25T19:40:27.048Z,96835.94
2022-11-25T19:42:54.094Z,96838.66
2022-11-25T19:45:21.422Z,96847.75
2022-11-25T19:47:52.238Z,96856.22
2022-11-25T19:50:26.775Z,96857.59
2022-11-25T19:52:54.262Z,96857.00
2022-11-25T19:55:23.943Z,96866.22
2022-11-25T19:57:51.925Z,96864.75
2022-11-25T20:00:20.812Z,96868.91
2022-11-25T20:02:51.002Z,96883.94
2022-11-25T20:05:22.362Z,96891.41
2022-11-25T20:07:49.326Z,96900.75
2022-11-25T20:10:20.182Z,96914.63
2022-11-25T20:12:47.628Z,96916.16
2022-11-25T20:15:14.719Z,96927.09
2022-11-25T20:17:46.476Z,96936.38
2022-11-25T20:20:18.610Z,96946.50
2022-11-25T20:23:16.351Z,96943.97
2022-11-25T20:25:45.824Z,96950.72
2022-11-25T20:28:20.310Z,96948.72
2022-11-25T20:30:48.474Z,96948.91
2022-11-25T20:33:19.829Z,96948.59
2022-11-25T20:35:52.068Z,96947.22
2022-11-25T20:38:22.367Z,96963.13
2022-11-25T20:40:52.021Z,96960.06
2022-11-25T20:43:32.177Z,96962.91
2022-11-25T20:46:00.505Z,96969.78
2022-11-25T20:48:28.830Z,96974.56
2022-11-25T20:51:03.488Z,96981.69
2022-11-25T20:53:32.394Z,96997.00
2022-11-25T20:55:59.581Z,97003.31
2022-11-25T20:58:31.212Z,97008.13
2022-11-25T21:00:59.291Z,97006.63
2022-11-25T21:03:26.576Z,97005.81
2022-11-25T21:05:55.542Z,97005.06
2022-11-25T21:08:24.367Z,96997.38
2022-11-25T21:10:53.971Z,97003.25
2022-11-25T21:13:23.380Z,97016.47
2022-11-25T21:15:53.254Z,97012.63
2022-11-25T21:18:23.623Z,97022.50
2022-11-25T21:20:54.051Z,97020.31
2022-11-25T21:23:27.574Z,97028.63
2022-11-25T21:26:00.127Z,97034.75
2022-11-25T21:28:27.725Z,97039.06
2022-11-25T21:30:54.378Z,97042.22
2022-11-25T21:33:21.096Z,97041.44
2022-11-25T21:35:49.865Z,97044.09
2022-11-25T21:38:21.002Z,97047.47
2022-11-25T21:40:58.589Z,97056.84
2022-11-25T21:43:32.909Z,97063.09
2022-11-25T21:46:07.619Z,97061.16
2022-11-25T21:48:34.791Z,97066.91
2022-11-25T21:51:01.464Z,97076.19
2022-11-25T21:53:30.107Z,97085.75
2022-11-25T21:55:59.930Z,97086.94
2022-11-25T21:58:29.575Z,97077.44
2022-11-25T22:01:01.659Z,97082.72
2022-11-25T22:03:30.895Z,97078.78
2022-11-25T22:05:57.887Z,97083.28
2022-11-25T22:08:24.624Z,97082.72
2022-11-25T22:10:53.315Z,97094.28
2022-11-25T22:13:34.178Z,97096.31
2022-11-25T22:16:01.687Z,97106.16
2022-11-25T22:18:31.633Z,97109.22
2022-11-25T22:20:58.939Z,97114.59
2022-11-25T22:23:26.662Z,97101.88
2022-11-25T22:25:54.251Z,97102.31
2022-11-25T22:28:24.334Z,97101.69
2022-11-25T22:30:57.722Z,97111.44
2022-11-25T22:33:33.367Z,97116.69
2022-11-25T22:36:00.628Z,97112.09
2022-11-25T22:38:29.253Z,97120.91
2022-11-25T22:41:02.603Z,97129.41
2022-11-25T22:43:39.848Z,97134.50
2022-11-25T22:46:06.892Z,97134.31
2022-11-25T22:48:36.292Z,97138.72
2022-11-25T22:51:03.414Z,97144.91
2022-11-25T22:53:30.458Z,97149.81
2022-11-25T22:55:58.342Z,97149.25
2022-11-25T22:58:26.485Z,97164.00
2022-11-25T23:00:55.268Z,97164.56
2022-11-25T23:03:29.676Z,97166.09
2022-11-25T23:05:57.416Z,97177.88
2022-11-25T23:08:28.993Z,97185.16
2022-11-25T23:10:56.519Z,97192.22
2022-11-25T23:13:24.004Z,97189.06
2022-11-25T23:15:56.010Z,97186.56
2022-11-25T23:18:40.445Z,97195.19
2022-11-25T23:21:16.147Z,97202.72
2022-11-25T23:23:42.902Z,97208.28
2022-11-25T23:26:10.870Z,97213.31
2022-11-25T23:28:37.538Z,97211.28
2022-11-25T23:31:04.465Z,97213.03
2022-11-25T23:33:39.173Z,97202.16
2022-11-25T23:36:21.965Z,97213.88
2022-11-25T23:38:54.848Z,97212.81
2022-11-25T23:41:27.206Z,97217.38
2022-11-25T23:43:55.164Z,97211.41
2022-11-25T23:46:27.536Z,97215.38
2022-11-25T23:48:58.657Z,97222.16
2022-11-25T23:51:27.256Z,97227.59
2022-11-25T23:53:55.476Z,97214.19
2022-11-25T23:56:23.127Z,97219.28
2022-11-25T23:58:50.082Z,97216.06
